Ackermanville, Pennsylvania
Current Conditions -  °F | °C
As of 3:03 PM on Monday 26 Jan 2015 (Local Time) from KABE Reporting Station
Light Snow Light Snow  
Wind Chill:   Ceiling: 3400
Heat Index: 21°   Visibility: 2mi
Dew Point: 16°   Wind: 14mph
Humidity: 80%   Direction: 60°ENE
Pressure: 29.83"   Gusts: NA
Location:  40.84°N, 75.22°W
Report Text: KABE 262003Z 06012KT 2SM -SN BKN034 OVC043 M06/M09 A2983 RMK AO2 P0000
Loading
Personal Weather Stations






























Interactive Weather Map New forecast layout! Learn more

10-Day Weather Forecast

Advertisements
Track Severe Weather on mobile